sensor_id;sensor_type;location;lat;lon;timestamp;P1;durP1;ratioP1;P2;durP2;ratioP2
22480;SDS011;11407;56.964;-2.212;2023-02-01T00:01:37;0.40;;;0.40;;
22480;SDS011;11407;56.964;-2.212;2023-02-01T00:04:09;0.40;;;0.40;;
22480;SDS011;11407;56.964;-2.212;2023-02-01T00:06:41;0.40;;;0.40;;
22480;SDS011;11407;56.964;-2.212;2023-02-01T00:09:13;1.40;;;0.60;;
22480;SDS011;11407;56.964;-2.212;2023-02-01T00:11:45;1.97;;;0.67;;
22480;SDS011;11407;56.964;-2.212;2023-02-01T00:14:16;1.40;;;0.70;;
22480;SDS011;11407;56.964;-2.212;2023-02-01T00:16:48;0.67;;;0.40;;
22480;SDS011;11407;56.964;-2.212;2023-02-01T00:19:20;0.53;;;0.37;;
22480;SDS011;11407;56.964;-2.212;2023-02-01T00:21:51;0.40;;;0.40;;
22480;SDS011;11407;56.964;-2.212;2023-02-01T00:24:23;0.50;;;0.40;;
22480;SDS011;11407;56.964;-2.212;2023-02-01T00:26:54;0.83;;;0.50;;
22480;SDS011;11407;56.964;-2.212;2023-02-01T00:29:26;0.50;;;0.43;;
22480;SDS011;11407;56.964;-2.212;2023-02-01T00:31:58;1.03;;;0.50;;
22480;SDS011;11407;56.964;-2.212;2023-02-01T00:34:29;1.60;;;0.40;;
22480;SDS011;11407;56.964;-2.212;2023-02-01T00:37:01;2.07;;;0.50;;
22480;SDS011;11407;56.964;-2.212;2023-02-01T00:39:33;1.30;;;0.60;;
22480;SDS011;11407;56.964;-2.212;2023-02-01T00:42:04;2.27;;;0.83;;
22480;SDS011;11407;56.964;-2.212;2023-02-01T00:44:36;2.33;;;0.77;;
22480;SDS011;11407;56.964;-2.212;2023-02-01T00:47:07;1.50;;;0.67;;
22480;SDS011;11407;56.964;-2.212;2023-02-01T00:49:39;2.73;;;0.97;;
22480;SDS011;11407;56.964;-2.212;2023-02-01T00:52:11;3.50;;;0.80;;
22480;SDS011;11407;56.964;-2.212;2023-02-01T00:54:42;2.10;;;0.77;;
22480;SDS011;11407;56.964;-2.212;2023-02-01T00:57:14;1.27;;;0.70;;
22480;SDS011;11407;56.964;-2.212;2023-02-01T00:59:45;1.67;;;0.70;;
22480;SDS011;11407;56.964;-2.212;2023-02-01T01:02:17;1.13;;;0.70;;
22480;SDS011;11407;56.964;-2.212;2023-02-01T01:04:50;1.80;;;0.70;;
22480;SDS011;11407;56.964;-2.212;2023-02-01T01:07:22;2.23;;;0.60;;
22480;SDS011;11407;56.964;-2.212;2023-02-01T01:09:53;0.60;;;0.50;;
22480;SDS011;11407;56.964;-2.212;2023-02-01T01:12:25;0.30;;;0.30;;
22480;SDS011;11407;56.964;-2.212;2023-02-01T01:14:57;1.57;;;0.60;;
22480;SDS011;11407;56.964;-2.212;2023-02-01T01:17:30;1.03;;;0.60;;
22480;SDS011;11407;56.964;-2.212;2023-02-01T01:20:02;2.07;;;0.60;;
22480;SDS011;11407;56.964;-2.212;2023-02-01T01:22:34;1.07;;;0.60;;
22480;SDS011;11407;56.964;-2.212;2023-02-01T01:25:06;1.20;;;0.40;;
22480;SDS011;11407;56.964;-2.212;2023-02-01T01:27:38;1.10;;;0.50;;
22480;SDS011;11407;56.964;-2.212;2023-02-01T01:30:10;1.57;;;0.60;;
22480;SDS011;11407;56.964;-2.212;2023-02-01T01:32:41;0.57;;;0.40;;
22480;SDS011;11407;56.964;-2.212;2023-02-01T01:35:13;0.40;;;0.40;;
22480;SDS011;11407;56.964;-2.212;2023-02-01T01:37:44;0.37;;;0.37;;
22480;SDS011;11407;56.964;-2.212;2023-02-01T01:40:16;0.40;;;0.37;;
22480;SDS011;11407;56.964;-2.212;2023-02-01T01:42:48;0.90;;;0.43;;
22480;SDS011;11407;56.964;-2.212;2023-02-01T01:45:30;0.20;;;0.20;;
22480;SDS011;11407;56.964;-2.212;2023-02-01T01:48:13;0.70;;;0.40;;
22480;SDS011;11407;56.964;-2.212;2023-02-01T01:51:10;0.87;;;0.40;;
22480;SDS011;11407;56.964;-2.212;2023-02-01T01:53:51;0.50;;;0.30;;
22480;SDS011;11407;56.964;-2.212;2023-02-01T01:56:28;1.60;;;0.60;;
22480;SDS011;11407;56.964;-2.212;2023-02-01T01:59:02;0.73;;;0.50;;
22480;SDS011;11407;56.964;-2.212;2023-02-01T02:01:34;0.40;;;0.40;;
22480;SDS011;11407;56.964;-2.212;2023-02-01T02:04:06;0.53;;;0.50;;
22480;SDS011;11407;56.964;-2.212;2023-02-01T02:06:48;0.80;;;0.50;;
22480;SDS011;11407;56.964;-2.212;2023-02-01T02:09:26;2.50;;;0.60;;
22480;SDS011;11407;56.964;-2.212;2023-02-01T02:11:58;1.27;;;0.57;;
22480;SDS011;11407;56.964;-2.212;2023-02-01T02:14:29;3.50;;;0.60;;
22480;SDS011;11407;56.964;-2.212;2023-02-01T02:36:46;1.47;;;0.50;;
22480;SDS011;11407;56.964;-2.212;2023-02-01T02:45:18;1.60;;;0.60;;
22480;SDS011;11407;56.964;-2.212;2023-02-01T02:48:30;1.50;;;0.50;;
22480;SDS011;11407;56.964;-2.212;2023-02-01T02:51:20;1.73;;;0.50;;
22480;SDS011;11407;56.964;-2.212;2023-02-01T02:54:18;3.00;;;0.80;;
22480;SDS011;11407;56.964;-2.212;2023-02-01T03:00:19;2.30;;;0.70;;
22480;SDS011;11407;56.964;-2.212;2023-02-01T03:03:12;1.80;;;0.80;;
22480;SDS011;11407;56.964;-2.212;2023-02-01T03:06:02;3.53;;;0.97;;
22480;SDS011;11407;56.964;-2.212;2023-02-01T03:08:41;1.20;;;0.50;;
22480;SDS011;11407;56.964;-2.212;2023-02-01T03:11:13;4.10;;;0.80;;
22480;SDS011;11407;56.964;-2.212;2023-02-01T03:13:47;6.53;;;1.30;;
22480;SDS011;11407;56.964;-2.212;2023-02-01T03:16:26;5.17;;;1.20;;
22480;SDS011;11407;56.964;-2.212;2023-02-01T03:19:09;3.73;;;1.10;;
22480;SDS011;11407;56.964;-2.212;2023-02-01T03:24:27;2.90;;;1.30;;
22480;SDS011;11407;56.964;-2.212;2023-02-01T03:32:43;2.57;;;0.90;;
22480;SDS011;11407;56.964;-2.212;2023-02-01T03:46:50;4.97;;;1.00;;
22480;SDS011;11407;56.964;-2.212;2023-02-01T03:49:34;1.27;;;0.50;;
22480;SDS011;11407;56.964;-2.212;2023-02-01T03:52:13;2.07;;;0.60;;
22480;SDS011;11407;56.964;-2.212;2023-02-01T03:54:50;0.30;;;0.30;;
22480;SDS011;11407;56.964;-2.212;2023-02-01T03:57:26;1.60;;;0.30;;
22480;SDS011;11407;56.964;-2.212;2023-02-01T04:00:20;0.40;;;0.40;;
22480;SDS011;11407;56.964;-2.212;2023-02-01T04:02:52;1.97;;;0.40;;
22480;SDS011;11407;56.964;-2.212;2023-02-01T04:05:24;0.20;;;0.20;;
22480;SDS011;11407;56.964;-2.212;2023-02-01T04:07:56;0.30;;;0.30;;
22480;SDS011;11407;56.964;-2.212;2023-02-01T04:10:30;1.90;;;0.40;;
22480;SDS011;11407;56.964;-2.212;2023-02-01T04:13:01;0.30;;;0.30;;
22480;SDS011;11407;56.964;-2.212;2023-02-01T04:15:33;0.30;;;0.30;;
22480;SDS011;11407;56.964;-2.212;2023-02-01T04:18:05;0.43;;;0.30;;
22480;SDS011;11407;56.964;-2.212;2023-02-01T04:20:36;0.20;;;0.20;;
22480;SDS011;11407;56.964;-2.212;2023-02-01T04:23:08;0.40;;;0.40;;
22480;SDS011;11407;56.964;-2.212;2023-02-01T04:25:40;0.83;;;0.40;;
22480;SDS011;11407;56.964;-2.212;2023-02-01T04:28:12;0.20;;;0.20;;
22480;SDS011;11407;56.964;-2.212;2023-02-01T04:30:43;0.30;;;0.20;;
22480;SDS011;11407;56.964;-2.212;2023-02-01T04:33:16;0.20;;;0.20;;
22480;SDS011;11407;56.964;-2.212;2023-02-01T04:35:47;0.20;;;0.20;;
22480;SDS011;11407;56.964;-2.212;2023-02-01T04:38:19;0.30;;;0.30;;
22480;SDS011;11407;56.964;-2.212;2023-02-01T04:40:51;0.40;;;0.30;;
22480;SDS011;11407;56.964;-2.212;2023-02-01T04:43:24;0.43;;;0.30;;
22480;SDS011;11407;56.964;-2.212;2023-02-01T04:45:55;0.33;;;0.33;;
22480;SDS011;11407;56.964;-2.212;2023-02-01T04:48:27;0.87;;;0.43;;
22480;SDS011;11407;56.964;-2.212;2023-02-01T04:50:58;0.57;;;0.40;;
22480;SDS011;11407;56.964;-2.212;2023-02-01T04:53:30;0.90;;;0.50;;
22480;SDS011;11407;56.964;-2.212;2023-02-01T04:56:02;2.37;;;0.50;;
22480;SDS011;11407;56.964;-2.212;2023-02-01T04:58:34;1.53;;;0.50;;
22480;SDS011;11407;56.964;-2.212;2023-02-01T05:01:06;0.73;;;0.40;;
22480;SDS011;11407;56.964;-2.212;2023-02-01T05:03:37;1.87;;;0.30;;
22480;SDS011;11407;56.964;-2.212;2023-02-01T05:06:09;1.43;;;0.47;;
22480;SDS011;11407;56.964;-2.212;2023-02-01T05:08:40;1.40;;;0.40;;
22480;SDS011;11407;56.964;-2.212;2023-02-01T05:11:12;1.20;;;0.33;;
22480;SDS011;11407;56.964;-2.212;2023-02-01T05:14:02;3.00;;;0.50;;
22480;SDS011;11407;56.964;-2.212;2023-02-01T05:16:33;1.03;;;0.50;;
22480;SDS011;11407;56.964;-2.212;2023-02-01T05:19:05;2.13;;;0.50;;
22480;SDS011;11407;56.964;-2.212;2023-02-01T05:21:36;2.47;;;0.80;;
22480;SDS011;11407;56.964;-2.212;2023-02-01T05:24:08;0.70;;;0.30;;
22480;SDS011;11407;56.964;-2.212;2023-02-01T05:26:44;0.50;;;0.40;;
22480;SDS011;11407;56.964;-2.212;2023-02-01T05:29:16;3.33;;;1.27;;
22480;SDS011;11407;56.964;-2.212;2023-02-01T05:31:48;0.97;;;0.40;;
22480;SDS011;11407;56.964;-2.212;2023-02-01T05:34:20;1.93;;;0.90;;
22480;SDS011;11407;56.964;-2.212;2023-02-01T05:36:51;2.00;;;0.63;;
22480;SDS011;11407;56.964;-2.212;2023-02-01T05:39:23;1.87;;;0.90;;
22480;SDS011;11407;56.964;-2.212;2023-02-01T05:41:54;3.50;;;0.80;;
22480;SDS011;11407;56.964;-2.212;2023-02-01T05:44:26;2.30;;;0.63;;
22480;SDS011;11407;56.964;-2.212;2023-02-01T05:46:57;3.10;;;0.90;;
22480;SDS011;11407;56.964;-2.212;2023-02-01T05:49:29;1.63;;;0.80;;
22480;SDS011;11407;56.964;-2.212;2023-02-01T05:52:00;4.90;;;0.97;;
22480;SDS011;11407;56.964;-2.212;2023-02-01T05:54:32;5.47;;;1.20;;
22480;SDS011;11407;56.964;-2.212;2023-02-01T05:57:03;5.10;;;1.17;;
22480;SDS011;11407;56.964;-2.212;2023-02-01T05:59:35;3.87;;;1.07;;
22480;SDS011;11407;56.964;-2.212;2023-02-01T06:02:10;6.03;;;1.27;;
22480;SDS011;11407;56.964;-2.212;2023-02-01T06:04:42;5.00;;;0.93;;
22480;SDS011;11407;56.964;-2.212;2023-02-01T06:07:13;3.63;;;0.93;;
22480;SDS011;11407;56.964;-2.212;2023-02-01T06:09:45;5.50;;;1.00;;
22480;SDS011;11407;56.964;-2.212;2023-02-01T06:12:16;4.30;;;1.27;;
22480;SDS011;11407;56.964;-2.212;2023-02-01T06:14:48;3.77;;;0.93;;
22480;SDS011;11407;56.964;-2.212;2023-02-01T06:17:19;3.23;;;0.90;;
22480;SDS011;11407;56.964;-2.212;2023-02-01T06:19:50;7.60;;;1.30;;
22480;SDS011;11407;56.964;-2.212;2023-02-01T06:22:22;5.40;;;1.23;;
22480;SDS011;11407;56.964;-2.212;2023-02-01T06:24:53;3.37;;;1.17;;
22480;SDS011;11407;56.964;-2.212;2023-02-01T06:27:25;5.27;;;1.17;;
22480;SDS011;11407;56.964;-2.212;2023-02-01T06:29:56;6.77;;;1.30;;
22480;SDS011;11407;56.964;-2.212;2023-02-01T06:32:29;10.23;;;1.70;;
22480;SDS011;11407;56.964;-2.212;2023-02-01T06:35:00;5.77;;;1.50;;
22480;SDS011;11407;56.964;-2.212;2023-02-01T06:37:41;6.53;;;1.90;;
22480;SDS011;11407;56.964;-2.212;2023-02-01T06:40:13;9.80;;;1.70;;
22480;SDS011;11407;56.964;-2.212;2023-02-01T06:42:44;7.27;;;1.50;;
22480;SDS011;11407;56.964;-2.212;2023-02-01T06:45:16;16.07;;;2.03;;
22480;SDS011;11407;56.964;-2.212;2023-02-01T06:47:47;7.00;;;1.53;;
22480;SDS011;11407;56.964;-2.212;2023-02-01T06:50:18;5.50;;;1.57;;
22480;SDS011;11407;56.964;-2.212;2023-02-01T06:52:50;4.37;;;1.20;;
22480;SDS011;11407;56.964;-2.212;2023-02-01T06:55:21;7.30;;;1.43;;
22480;SDS011;11407;56.964;-2.212;2023-02-01T06:57:53;8.53;;;1.70;;
22480;SDS011;11407;56.964;-2.212;2023-02-01T07:00:27;6.43;;;1.80;;
22480;SDS011;11407;56.964;-2.212;2023-02-01T07:02:58;5.07;;;1.50;;
22480;SDS011;11407;56.964;-2.212;2023-02-01T07:05:30;9.73;;;1.60;;
22480;SDS011;11407;56.964;-2.212;2023-02-01T07:08:01;6.67;;;1.70;;
22480;SDS011;11407;56.964;-2.212;2023-02-01T07:10:33;3.80;;;1.07;;
22480;SDS011;11407;56.964;-2.212;2023-02-01T07:13:05;9.03;;;1.50;;
22480;SDS011;11407;56.964;-2.212;2023-02-01T07:15:36;7.83;;;2.00;;
22480;SDS011;11407;56.964;-2.212;2023-02-01T07:18:08;7.17;;;1.50;;
22480;SDS011;11407;56.964;-2.212;2023-02-01T07:20:40;4.50;;;1.40;;
22480;SDS011;11407;56.964;-2.212;2023-02-01T07:23:14;6.33;;;1.60;;
22480;SDS011;11407;56.964;-2.212;2023-02-01T07:25:46;5.80;;;1.50;;
22480;SDS011;11407;56.964;-2.212;2023-02-01T07:28:18;5.53;;;1.40;;
22480;SDS011;11407;56.964;-2.212;2023-02-01T07:30:50;5.40;;;1.53;;
22480;SDS011;11407;56.964;-2.212;2023-02-01T07:33:36;4.80;;;1.23;;
22480;SDS011;11407;56.964;-2.212;2023-02-01T07:36:10;7.57;;;1.53;;
22480;SDS011;11407;56.964;-2.212;2023-02-01T07:38:42;8.77;;;2.00;;
22480;SDS011;11407;56.964;-2.212;2023-02-01T07:41:14;6.37;;;1.10;;
22480;SDS011;11407;56.964;-2.212;2023-02-01T07:43:46;6.30;;;1.43;;
22480;SDS011;11407;56.964;-2.212;2023-02-01T07:46:17;4.13;;;1.47;;
22480;SDS011;11407;56.964;-2.212;2023-02-01T07:48:49;5.03;;;1.13;;
22480;SDS011;11407;56.964;-2.212;2023-02-01T07:51:20;7.30;;;1.70;;
22480;SDS011;11407;56.964;-2.212;2023-02-01T07:53:52;8.50;;;1.70;;
22480;SDS011;11407;56.964;-2.212;2023-02-01T07:56:23;8.37;;;1.47;;
22480;SDS011;11407;56.964;-2.212;2023-02-01T07:58:55;3.67;;;1.33;;
22480;SDS011;11407;56.964;-2.212;2023-02-01T08:01:27;5.60;;;1.37;;
22480;SDS011;11407;56.964;-2.212;2023-02-01T08:03:59;5.27;;;1.53;;
22480;SDS011;11407;56.964;-2.212;2023-02-01T08:06:34;5.90;;;1.43;;
22480;SDS011;11407;56.964;-2.212;2023-02-01T08:09:06;2.70;;;1.30;;
22480;SDS011;11407;56.964;-2.212;2023-02-01T08:11:37;5.20;;;1.20;;
22480;SDS011;11407;56.964;-2.212;2023-02-01T08:14:09;6.73;;;1.53;;
22480;SDS011;11407;56.964;-2.212;2023-02-01T08:16:40;4.93;;;1.20;;
22480;SDS011;11407;56.964;-2.212;2023-02-01T08:19:12;5.07;;;1.47;;
22480;SDS011;11407;56.964;-2.212;2023-02-01T08:21:44;6.70;;;1.60;;
22480;SDS011;11407;56.964;-2.212;2023-02-01T08:24:15;5.83;;;1.10;;
22480;SDS011;11407;56.964;-2.212;2023-02-01T08:26:46;6.23;;;1.43;;
22480;SDS011;11407;56.964;-2.212;2023-02-01T08:29:18;9.47;;;1.67;;
22480;SDS011;11407;56.964;-2.212;2023-02-01T08:31:49;7.47;;;2.07;;
22480;SDS011;11407;56.964;-2.212;2023-02-01T08:34:20;5.87;;;1.20;;
22480;SDS011;11407;56.964;-2.212;2023-02-01T08:36:52;5.07;;;1.10;;
22480;SDS011;11407;56.964;-2.212;2023-02-01T08:39:25;6.87;;;1.40;;
22480;SDS011;11407;56.964;-2.212;2023-02-01T08:41:56;7.60;;;1.30;;
22480;SDS011;11407;56.964;-2.212;2023-02-01T08:44:46;7.53;;;1.43;;
22480;SDS011;11407;56.964;-2.212;2023-02-01T08:47:17;6.77;;;1.23;;
22480;SDS011;11407;56.964;-2.212;2023-02-01T08:49:49;7.40;;;1.40;;
22480;SDS011;11407;56.964;-2.212;2023-02-01T08:52:20;5.50;;;1.40;;
22480;SDS011;11407;56.964;-2.212;2023-02-01T08:54:52;8.90;;;1.57;;
22480;SDS011;11407;56.964;-2.212;2023-02-01T08:57:24;6.90;;;1.53;;
22480;SDS011;11407;56.964;-2.212;2023-02-01T08:59:55;6.80;;;1.60;;
22480;SDS011;11407;56.964;-2.212;2023-02-01T09:02:29;6.97;;;1.40;;
22480;SDS011;11407;56.964;-2.212;2023-02-01T09:05:00;7.80;;;1.60;;
22480;SDS011;11407;56.964;-2.212;2023-02-01T09:07:32;7.27;;;1.50;;
22480;SDS011;11407;56.964;-2.212;2023-02-01T09:10:04;6.93;;;1.67;;
22480;SDS011;11407;56.964;-2.212;2023-02-01T09:12:36;3.27;;;1.23;;
22480;SDS011;11407;56.964;-2.212;2023-02-01T09:15:07;4.47;;;1.90;;
22480;SDS011;11407;56.964;-2.212;2023-02-01T09:17:39;2.90;;;1.10;;
22480;SDS011;11407;56.964;-2.212;2023-02-01T09:20:10;6.27;;;1.57;;
22480;SDS011;11407;56.964;-2.212;2023-02-01T09:22:43;8.87;;;1.60;;
22480;SDS011;11407;56.964;-2.212;2023-02-01T09:25:16;8.97;;;2.00;;
22480;SDS011;11407;56.964;-2.212;2023-02-01T09:27:48;4.17;;;1.27;;
22480;SDS011;11407;56.964;-2.212;2023-02-01T09:30:19;6.87;;;1.30;;
22480;SDS011;11407;56.964;-2.212;2023-02-01T09:32:50;6.00;;;1.30;;
22480;SDS011;11407;56.964;-2.212;2023-02-01T09:35:22;4.73;;;1.40;;
22480;SDS011;11407;56.964;-2.212;2023-02-01T09:37:53;5.67;;;1.30;;
22480;SDS011;11407;56.964;-2.212;2023-02-01T09:40:25;6.17;;;1.30;;
22480;SDS011;11407;56.964;-2.212;2023-02-01T09:45:49;6.13;;;1.20;;
22480;SDS011;11407;56.964;-2.212;2023-02-01T09:48:38;6.17;;;1.10;;
22480;SDS011;11407;56.964;-2.212;2023-02-01T09:51:16;4.53;;;1.63;;
22480;SDS011;11407;56.964;-2.212;2023-02-01T09:56:36;6.53;;;1.80;;
22480;SDS011;11407;56.964;-2.212;2023-02-01T09:59:40;5.10;;;1.20;;
22480;SDS011;11407;56.964;-2.212;2023-02-01T10:02:16;3.37;;;1.57;;
22480;SDS011;11407;56.964;-2.212;2023-02-01T10:04:52;4.93;;;1.33;;
22480;SDS011;11407;56.964;-2.212;2023-02-01T10:26:40;5.93;;;1.53;;
22480;SDS011;11407;56.964;-2.212;2023-02-01T10:29:24;9.27;;;1.70;;
22480;SDS011;11407;56.964;-2.212;2023-02-01T10:32:03;7.00;;;1.40;;
22480;SDS011;11407;56.964;-2.212;2023-02-01T10:34:42;5.87;;;1.50;;
22480;SDS011;11407;56.964;-2.212;2023-02-01T10:37:23;2.90;;;1.17;;
22480;SDS011;11407;56.964;-2.212;2023-02-01T10:40:00;6.43;;;1.37;;
22480;SDS011;11407;56.964;-2.212;2023-02-01T10:42:50;5.67;;;1.80;;
22480;SDS011;11407;56.964;-2.212;2023-02-01T10:45:27;6.33;;;1.57;;
22480;SDS011;11407;56.964;-2.212;2023-02-01T10:48:00;6.53;;;1.50;;
22480;SDS011;11407;56.964;-2.212;2023-02-01T10:53:28;6.30;;;1.20;;
22480;SDS011;11407;56.964;-2.212;2023-02-01T10:56:06;4.07;;;1.07;;
22480;SDS011;11407;56.964;-2.212;2023-02-01T10:58:45;5.30;;;1.00;;
22480;SDS011;11407;56.964;-2.212;2023-02-01T11:01:27;5.40;;;1.17;;
22480;SDS011;11407;56.964;-2.212;2023-02-01T11:04:05;3.27;;;1.07;;
22480;SDS011;11407;56.964;-2.212;2023-02-01T11:06:48;6.37;;;1.30;;
22480;SDS011;11407;56.964;-2.212;2023-02-01T11:09:32;3.43;;;0.97;;
22480;SDS011;11407;56.964;-2.212;2023-02-01T11:12:20;5.73;;;1.30;;
22480;SDS011;11407;56.964;-2.212;2023-02-01T11:15:19;4.93;;;1.20;;
22480;SDS011;11407;56.964;-2.212;2023-02-01T11:17:51;6.13;;;1.10;;
22480;SDS011;11407;56.964;-2.212;2023-02-01T11:23:17;4.27;;;1.27;;
22480;SDS011;11407;56.964;-2.212;2023-02-01T11:25:51;4.53;;;1.10;;
22480;SDS011;11407;56.964;-2.212;2023-02-01T11:28:31;3.17;;;0.83;;
22480;SDS011;11407;56.964;-2.212;2023-02-01T11:31:07;3.07;;;0.93;;
22480;SDS011;11407;56.964;-2.212;2023-02-01T11:33:43;4.40;;;1.00;;
22480;SDS011;11407;56.964;-2.212;2023-02-01T11:36:32;5.00;;;1.47;;
22480;SDS011;11407;56.964;-2.212;2023-02-01T11:41:43;4.00;;;1.17;;
22480;SDS011;11407;56.964;-2.212;2023-02-01T11:44:39;4.57;;;1.30;;
22480;SDS011;11407;56.964;-2.212;2023-02-01T11:50:09;8.10;;;1.70;;
22480;SDS011;11407;56.964;-2.212;2023-02-01T12:07:24;6.73;;;1.10;;
22480;SDS011;11407;56.964;-2.212;2023-02-01T12:15:46;5.60;;;1.40;;
22480;SDS011;11407;56.964;-2.212;2023-02-01T12:24:15;3.07;;;1.27;;
22480;SDS011;11407;56.964;-2.212;2023-02-01T12:29:48;3.50;;;1.20;;
22480;SDS011;11407;56.964;-2.212;2023-02-01T12:47:04;2.53;;;1.00;;
22480;SDS011;11407;56.964;-2.212;2023-02-01T12:49:58;9.13;;;1.30;;
22480;SDS011;11407;56.964;-2.212;2023-02-01T12:52:55;8.10;;;1.30;;
22480;SDS011;11407;56.964;-2.212;2023-02-01T12:55:53;8.37;;;1.40;;
22480;SDS011;11407;56.964;-2.212;2023-02-01T13:01:11;4.63;;;1.10;;
22480;SDS011;11407;56.964;-2.212;2023-02-01T13:12:10;3.70;;;1.30;;
22480;SDS011;11407;56.964;-2.212;2023-02-01T13:15:17;5.20;;;1.53;;
22480;SDS011;11407;56.964;-2.212;2023-02-01T13:17:54;8.90;;;1.40;;
22480;SDS011;11407;56.964;-2.212;2023-02-01T13:23:03;6.87;;;1.33;;
22480;SDS011;11407;56.964;-2.212;2023-02-01T13:25:51;5.80;;;1.30;;
22480;SDS011;11407;56.964;-2.212;2023-02-01T13:28:31;9.77;;;1.87;;
22480;SDS011;11407;56.964;-2.212;2023-02-01T13:37:20;3.93;;;1.40;;
22480;SDS011;11407;56.964;-2.212;2023-02-01T13:42:53;5.67;;;1.57;;
22480;SDS011;11407;56.964;-2.212;2023-02-01T13:45:48;5.83;;;1.40;;
22480;SDS011;11407;56.964;-2.212;2023-02-01T13:48:41;6.73;;;1.30;;
22480;SDS011;11407;56.964;-2.212;2023-02-01T13:51:32;4.37;;;1.27;;
22480;SDS011;11407;56.964;-2.212;2023-02-01T13:57:03;2.30;;;0.90;;
22480;SDS011;11407;56.964;-2.212;2023-02-01T14:00:22;3.00;;;0.90;;
22480;SDS011;11407;56.964;-2.212;2023-02-01T14:13:29;3.77;;;1.10;;
22480;SDS011;11407;56.964;-2.212;2023-02-01T14:21:18;3.53;;;1.10;;
22480;SDS011;11407;56.964;-2.212;2023-02-01T14:26:27;3.10;;;1.10;;
22480;SDS011;11407;56.964;-2.212;2023-02-01T14:40:03;7.27;;;1.20;;
22480;SDS011;11407;56.964;-2.212;2023-02-01T14:42:39;4.73;;;1.10;;
22480;SDS011;11407;56.964;-2.212;2023-02-01T14:50:46;5.97;;;1.20;;
22480;SDS011;11407;56.964;-2.212;2023-02-01T14:53:20;6.93;;;1.30;;
22480;SDS011;11407;56.964;-2.212;2023-02-01T15:01:26;2.47;;;1.10;;
22480;SDS011;11407;56.964;-2.212;2023-02-01T15:09:41;5.30;;;1.10;;
22480;SDS011;11407;56.964;-2.212;2023-02-01T15:12:18;7.30;;;1.40;;
22480;SDS011;11407;56.964;-2.212;2023-02-01T15:17:57;8.63;;;1.60;;
22480;SDS011;11407;56.964;-2.212;2023-02-01T15:20:30;3.57;;;1.13;;
22480;SDS011;11407;56.964;-2.212;2023-02-01T15:23:02;6.90;;;1.73;;
22480;SDS011;11407;56.964;-2.212;2023-02-01T15:25:44;7.13;;;1.30;;
22480;SDS011;11407;56.964;-2.212;2023-02-01T15:28:16;3.83;;;1.40;;
22480;SDS011;11407;56.964;-2.212;2023-02-01T15:30:52;4.27;;;1.33;;
22480;SDS011;11407;56.964;-2.212;2023-02-01T15:33:26;4.83;;;1.47;;
22480;SDS011;11407;56.964;-2.212;2023-02-01T15:36:16;3.70;;;1.17;;
22480;SDS011;11407;56.964;-2.212;2023-02-01T15:39:10;4.70;;;1.20;;
22480;SDS011;11407;56.964;-2.212;2023-02-01T15:44:44;4.17;;;1.40;;
22480;SDS011;11407;56.964;-2.212;2023-02-01T15:47:17;3.67;;;1.60;;
22480;SDS011;11407;56.964;-2.212;2023-02-01T15:49:51;4.93;;;1.30;;
22480;SDS011;11407;56.964;-2.212;2023-02-01T15:52:39;10.43;;;2.07;;
22480;SDS011;11407;56.964;-2.212;2023-02-01T15:55:35;4.43;;;1.23;;
22480;SDS011;11407;56.964;-2.212;2023-02-01T15:58:08;4.60;;;1.40;;
22480;SDS011;11407;56.964;-2.212;2023-02-01T16:00:46;5.50;;;1.50;;
22480;SDS011;11407;56.964;-2.212;2023-02-01T16:03:26;5.87;;;1.40;;
22480;SDS011;11407;56.964;-2.212;2023-02-01T16:08:50;10.93;;;1.50;;
22480;SDS011;11407;56.964;-2.212;2023-02-01T16:11:29;6.67;;;1.83;;
22480;SDS011;11407;56.964;-2.212;2023-02-01T16:14:13;4.50;;;1.40;;
22480;SDS011;11407;56.964;-2.212;2023-02-01T16:16:45;10.17;;;1.67;;
22480;SDS011;11407;56.964;-2.212;2023-02-01T16:19:17;6.80;;;1.67;;
22480;SDS011;11407;56.964;-2.212;2023-02-01T16:21:53;6.00;;;1.63;;
22480;SDS011;11407;56.964;-2.212;2023-02-01T16:24:25;6.10;;;1.53;;
22480;SDS011;11407;56.964;-2.212;2023-02-01T16:26:58;8.43;;;1.47;;
22480;SDS011;11407;56.964;-2.212;2023-02-01T16:29:32;2.93;;;1.33;;
22480;SDS011;11407;56.964;-2.212;2023-02-01T16:32:03;5.07;;;1.20;;
22480;SDS011;11407;56.964;-2.212;2023-02-01T16:34:40;3.90;;;1.37;;
22480;SDS011;11407;56.964;-2.212;2023-02-01T16:37:13;6.63;;;1.93;;
22480;SDS011;11407;56.964;-2.212;2023-02-01T16:39:47;6.57;;;1.10;;
22480;SDS011;11407;56.964;-2.212;2023-02-01T16:42:19;3.90;;;2.20;;
22480;SDS011;11407;56.964;-2.212;2023-02-01T16:44:50;5.60;;;2.10;;
22480;SDS011;11407;56.964;-2.212;2023-02-01T16:47:22;6.40;;;1.50;;
22480;SDS011;11407;56.964;-2.212;2023-02-01T16:49:54;5.17;;;2.17;;
22480;SDS011;11407;56.964;-2.212;2023-02-01T16:52:26;8.93;;;3.27;;
22480;SDS011;11407;56.964;-2.212;2023-02-01T16:55:00;10.00;;;3.17;;
22480;SDS011;11407;56.964;-2.212;2023-02-01T16:57:37;7.07;;;3.10;;
22480;SDS011;11407;56.964;-2.212;2023-02-01T17:00:09;7.40;;;4.43;;
22480;SDS011;11407;56.964;-2.212;2023-02-01T17:02:42;6.40;;;3.40;;
22480;SDS011;11407;56.964;-2.212;2023-02-01T17:05:13;7.03;;;4.07;;
22480;SDS011;11407;56.964;-2.212;2023-02-01T17:07:45;6.30;;;3.20;;
22480;SDS011;11407;56.964;-2.212;2023-02-01T17:10:20;5.73;;;2.70;;
22480;SDS011;11407;56.964;-2.212;2023-02-01T17:12:52;16.13;;;7.77;;
22480;SDS011;11407;56.964;-2.212;2023-02-01T17:15:26;12.07;;;6.97;;
22480;SDS011;11407;56.964;-2.212;2023-02-01T17:17:59;13.97;;;5.47;;
22480;SDS011;11407;56.964;-2.212;2023-02-01T17:20:33;6.10;;;3.63;;
22480;SDS011;11407;56.964;-2.212;2023-02-01T17:23:06;9.17;;;4.27;;
22480;SDS011;11407;56.964;-2.212;2023-02-01T17:25:38;7.60;;;4.10;;
22480;SDS011;11407;56.964;-2.212;2023-02-01T17:28:10;10.63;;;3.77;;
22480;SDS011;11407;56.964;-2.212;2023-02-01T17:30:41;7.63;;;3.87;;
22480;SDS011;11407;56.964;-2.212;2023-02-01T17:33:46;7.90;;;2.73;;
22480;SDS011;11407;56.964;-2.212;2023-02-01T17:36:12;6.73;;;2.10;;
22480;SDS011;11407;56.964;-2.212;2023-02-01T17:38:44;6.63;;;2.00;;
22480;SDS011;11407;56.964;-2.212;2023-02-01T17:41:16;6.10;;;2.20;;
22480;SDS011;11407;56.964;-2.212;2023-02-01T17:43:49;5.73;;;1.70;;
22480;SDS011;11407;56.964;-2.212;2023-02-01T17:46:21;4.73;;;1.90;;
22480;SDS011;11407;56.964;-2.212;2023-02-01T17:48:55;5.20;;;2.20;;
22480;SDS011;11407;56.964;-2.212;2023-02-01T17:51:27;8.90;;;2.40;;
22480;SDS011;11407;56.964;-2.212;2023-02-01T17:53:59;4.13;;;1.93;;
22480;SDS011;11407;56.964;-2.212;2023-02-01T17:56:36;8.00;;;2.10;;
22480;SDS011;11407;56.964;-2.212;2023-02-01T17:59:08;3.50;;;1.63;;
22480;SDS011;11407;56.964;-2.212;2023-02-01T18:01:41;4.97;;;1.80;;
22480;SDS011;11407;56.964;-2.212;2023-02-01T18:04:15;4.80;;;2.50;;
22480;SDS011;11407;56.964;-2.212;2023-02-01T18:06:47;4.03;;;1.70;;
22480;SDS011;11407;56.964;-2.212;2023-02-01T18:09:18;14.20;;;8.00;;
22480;SDS011;11407;56.964;-2.212;2023-02-01T18:11:50;3.67;;;2.53;;
22480;SDS011;11407;56.964;-2.212;2023-02-01T18:14:22;10.50;;;6.13;;
22480;SDS011;11407;56.964;-2.212;2023-02-01T18:16:54;18.73;;;10.57;;
22480;SDS011;11407;56.964;-2.212;2023-02-01T18:19:25;11.70;;;7.73;;
22480;SDS011;11407;56.964;-2.212;2023-02-01T18:21:58;30.63;;;16.17;;
22480;SDS011;11407;56.964;-2.212;2023-02-01T18:24:30;59.57;;;27.30;;
22480;SDS011;11407;56.964;-2.212;2023-02-01T18:27:02;34.27;;;14.77;;
22480;SDS011;11407;56.964;-2.212;2023-02-01T18:29:33;47.03;;;20.70;;
22480;SDS011;11407;56.964;-2.212;2023-02-01T18:32:05;38.37;;;18.77;;
22480;SDS011;11407;56.964;-2.212;2023-02-01T18:34:39;26.80;;;14.77;;
22480;SDS011;11407;56.964;-2.212;2023-02-01T18:37:11;23.80;;;11.20;;
22480;SDS011;11407;56.964;-2.212;2023-02-01T18:39:43;21.90;;;11.53;;
22480;SDS011;11407;56.964;-2.212;2023-02-01T18:42:14;22.33;;;11.83;;
22480;SDS011;11407;56.964;-2.212;2023-02-01T18:44:46;28.63;;;16.03;;
22480;SDS011;11407;56.964;-2.212;2023-02-01T18:47:17;30.93;;;16.03;;
22480;SDS011;11407;56.964;-2.212;2023-02-01T18:49:49;22.20;;;12.17;;